createdAt,value
2018-09-15T00:01:49.373Z,19.80
2018-09-15T00:04:19.557Z,16.47
2018-09-15T00:06:49.247Z,17.30
2018-09-15T00:09:19.917Z,18.70
2018-09-15T00:11:49.698Z,21.93
2018-09-15T00:14:19.521Z,17.13
2018-09-15T00:16:49.255Z,17.93
2018-09-15T00:19:18.985Z,21.67
2018-09-15T00:21:55.732Z,17.20
2018-09-15T00:24:26.180Z,17.73
2018-09-15T00:26:56.023Z,15.37
2018-09-15T00:29:25.845Z,14.90
2018-09-15T00:31:56.290Z,17.93
2018-09-15T00:34:26.053Z,18.13
2018-09-15T00:36:55.897Z,16.97
2018-09-15T00:39:25.638Z,17.50
2018-09-15T00:41:55.323Z,18.10
2018-09-15T00:44:29.714Z,16.73
2018-09-15T00:46:59.380Z,16.20
2018-09-15T00:49:29.911Z,13.97
2018-09-15T00:52:06.276Z,15.73
2018-09-15T00:54:36.091Z,15.57
2018-09-15T00:57:05.948Z,14.70
2018-09-15T00:59:35.759Z,16.07
2018-09-15T01:02:05.503Z,16.30
2018-09-15T01:04:35.853Z,19.10
2018-09-15T01:07:05.515Z,15.83
2018-09-15T01:09:35.231Z,15.43
2018-09-15T01:12:05.715Z,13.63
2018-09-15T01:14:35.477Z,13.53
2018-09-15T01:17:05.259Z,13.83
2018-09-15T01:19:35.040Z,14.80
2018-09-15T01:22:05.476Z,14.70
2018-09-15T01:24:35.495Z,13.37
2018-09-15T01:27:05.184Z,16.70
2018-09-15T01:29:34.997Z,11.83
2018-09-15T01:32:04.812Z,14.83
2018-09-15T01:34:34.702Z,13.37
2018-09-15T01:37:05.019Z,16.53
2018-09-15T01:39:34.793Z,13.63
2018-09-15T01:42:04.486Z,13.93
2018-09-15T01:44:34.251Z,11.63
2018-09-15T01:47:03.916Z,13.27
2018-09-15T01:49:33.716Z,14.47
2018-09-15T01:52:03.685Z,10.80
2018-09-15T01:54:40.189Z,14.70
2018-09-15T01:57:09.966Z,12.20
2018-09-15T01:59:39.921Z,15.13
2018-09-15T02:02:09.652Z,12.43
2018-09-15T02:04:39.309Z,12.93
2018-09-15T02:07:08.965Z,14.30
2018-09-15T02:09:39.416Z,13.33
2018-09-15T02:12:09.220Z,11.87
2018-09-15T02:14:39.147Z,12.73
2018-09-15T02:17:09.700Z,12.17
2018-09-15T02:19:39.432Z,12.63
2018-09-15T02:22:09.245Z,11.10
2018-09-15T02:24:38.956Z,13.03
2018-09-15T02:27:08.681Z,14.47
2018-09-15T02:29:38.365Z,15.77
2018-09-15T02:32:08.139Z,14.30
2018-09-15T02:34:37.784Z,12.67
2018-09-15T02:37:07.620Z,12.13
2018-09-15T02:39:37.450Z,11.67
2018-09-15T02:42:07.223Z,15.27
2018-09-15T02:44:36.992Z,11.33
2018-09-15T02:47:07.116Z,12.90
2018-09-15T02:49:36.800Z,13.70
2018-09-15T02:52:06.811Z,11.20
2018-09-15T02:54:37.041Z,12.93
2018-09-15T02:57:06.783Z,16.77
2018-09-15T02:59:36.675Z,11.47
2018-09-15T03:02:06.463Z,13.20
2018-09-15T03:04:36.148Z,12.67
2018-09-15T03:07:05.919Z,11.03
2018-09-15T03:09:35.930Z,11.50
2018-09-15T03:12:06.304Z,13.73
2018-09-15T03:14:35.969Z,11.33
2018-09-15T03:17:05.691Z,11.73
2018-09-15T03:19:35.462Z,13.67
2018-09-15T03:22:05.272Z,10.67
2018-09-15T03:24:34.903Z,13.00
2018-09-15T03:27:05.507Z,11.33
2018-09-15T03:29:35.770Z,14.53
2018-09-15T03:32:05.583Z,11.43
2018-09-15T03:34:35.229Z,13.57
2018-09-15T03:37:04.871Z,12.53
2018-09-15T03:39:34.709Z,13.03
2018-09-15T03:42:04.413Z,11.87
2018-09-15T03:44:34.180Z,12.13
2018-09-15T03:47:03.998Z,15.77
2018-09-15T03:49:33.671Z,12.40
2018-09-15T03:52:03.388Z,15.13
2018-09-15T03:54:33.125Z,11.90
2018-09-15T03:57:02.954Z,13.53
2018-09-15T03:59:32.686Z,14.57
2018-09-15T04:02:02.436Z,14.63
2018-09-15T04:04:32.217Z,16.47
2018-09-15T04:07:01.860Z,15.60
2018-09-15T04:09:31.551Z,14.27
2018-09-15T04:12:01.193Z,16.70
2018-09-15T04:14:30.853Z,14.37
2018-09-15T04:17:00.612Z,16.20
2018-09-15T04:19:30.304Z,17.57
2018-09-15T04:22:00.086Z,17.27
2018-09-15T04:24:29.799Z,16.73
2018-09-15T04:26:59.411Z,16.23
2018-09-15T04:29:29.124Z,17.77
2018-09-15T04:31:58.804Z,18.87
2018-09-15T04:34:28.460Z,20.23
2018-09-15T04:36:58.137Z,18.00
2018-09-15T04:39:27.825Z,17.00
2018-09-15T04:41:57.591Z,21.17
2018-09-15T04:44:27.255Z,23.30
2018-09-15T04:46:57.100Z,16.80
2018-09-15T04:49:27.433Z,22.10
2018-09-15T04:51:57.279Z,23.03
2018-09-15T04:54:26.923Z,18.63
2018-09-15T04:56:56.648Z,19.30
2018-09-15T04:59:26.352Z,17.47
2018-09-15T05:01:56.046Z,16.93
2018-09-15T05:04:25.676Z,18.53
2018-09-15T05:06:55.624Z,20.77
2018-09-15T05:09:25.326Z,17.30
2018-09-15T05:11:55.012Z,21.10
2018-09-15T05:14:24.719Z,18.00
2018-09-15T05:16:54.541Z,15.47
2018-09-15T05:19:25.143Z,15.20
2018-09-15T05:21:54.788Z,17.20
2018-09-15T05:24:24.436Z,19.20
2018-09-15T05:26:54.211Z,17.80
2018-09-15T05:29:23.966Z,19.33
2018-09-15T05:31:53.715Z,20.07
2018-09-15T05:34:23.423Z,14.67
2018-09-15T05:36:53.601Z,17.40
2018-09-15T05:39:23.406Z,15.67
2018-09-15T05:41:53.176Z,18.03
2018-09-15T05:44:23.121Z,14.40
2018-09-15T05:46:52.988Z,16.83
2018-09-15T05:49:22.625Z,18.17
2018-09-15T05:51:52.615Z,18.10
2018-09-15T05:54:22.312Z,14.80
2018-09-15T05:56:52.112Z,15.30
2018-09-15T05:59:21.976Z,16.60
2018-09-15T06:01:51.876Z,14.27
2018-09-15T06:04:21.443Z,16.23
2018-09-15T06:06:51.227Z,20.40
2018-09-15T06:09:20.921Z,12.87
2018-09-15T06:11:50.834Z,14.20
2018-09-15T06:14:20.541Z,19.20
2018-09-15T06:16:50.206Z,16.47
2018-09-15T06:19:19.909Z,14.13
2018-09-15T06:21:49.566Z,11.00
2018-09-15T06:24:19.256Z,13.20
2018-09-15T06:26:48.992Z,12.70
2018-09-15T06:29:18.692Z,12.60
2018-09-15T06:31:48.693Z,10.20
2018-09-15T06:34:18.398Z,10.23
2018-09-15T06:36:48.379Z,10.97
2018-09-15T06:39:18.330Z,10.63
2018-09-15T06:41:48.208Z,16.47
2018-09-15T06:44:18.006Z,10.67
2018-09-15T06:46:47.960Z,12.10
2018-09-15T06:49:17.729Z,14.73
2018-09-15T06:51:47.524Z,12.33
2018-09-15T06:54:17.180Z,11.93
2018-09-15T06:56:46.893Z,11.37
2018-09-15T06:59:17.144Z,15.10
2018-09-15T07:01:46.910Z,13.70
2018-09-15T07:04:16.619Z,11.80
2018-09-15T07:06:53.167Z,13.13
2018-09-15T07:09:22.930Z,11.37
2018-09-15T07:11:52.587Z,11.43
2018-09-15T07:14:22.332Z,12.80
2018-09-15T07:16:52.061Z,12.03
2018-09-15T07:19:21.758Z,11.00
2018-09-15T07:21:56.147Z,10.57
2018-09-15T07:24:26.957Z,12.77
2018-09-15T07:26:57.060Z,8.80
2018-09-15T07:29:26.823Z,8.63
2018-09-15T07:31:56.808Z,14.00
2018-09-15T07:34:26.585Z,9.60
2018-09-15T07:36:57.087Z,12.17
2018-09-15T07:39:26.916Z,10.67
2018-09-15T07:41:56.584Z,12.20
2018-09-15T07:44:26.334Z,12.00
2018-09-15T07:46:55.968Z,9.43
2018-09-15T07:49:25.757Z,12.50
2018-09-15T07:51:55.449Z,11.53
2018-09-15T07:54:25.141Z,10.57
2018-09-15T07:56:54.895Z,10.00
2018-09-15T07:59:24.686Z,12.93
2018-09-15T08:01:54.495Z,13.87
2018-09-15T08:04:24.177Z,14.80
2018-09-15T08:06:53.941Z,12.13
2018-09-15T08:09:23.688Z,14.90
2018-09-15T08:11:53.469Z,14.87
2018-09-15T08:14:23.248Z,18.97
2018-09-15T08:16:53.022Z,12.17
2018-09-15T08:19:22.654Z,12.50
2018-09-15T08:21:52.675Z,11.67
2018-09-15T08:24:22.969Z,15.37
2018-09-15T08:26:52.725Z,12.87
2018-09-15T08:29:22.432Z,12.27
2018-09-15T08:31:52.171Z,11.33
2018-09-15T08:34:21.954Z,13.60
2018-09-15T08:36:51.726Z,11.37
2018-09-15T08:39:21.495Z,12.23
2018-09-15T08:41:51.524Z,10.53
2018-09-15T08:44:21.772Z,13.20
2018-09-15T08:46:52.137Z,12.37
2018-09-15T08:49:22.084Z,11.20
2018-09-15T08:51:52.641Z,8.80
2018-09-15T08:54:23.901Z,10.70
2018-09-15T08:56:54.154Z,11.00
2018-09-15T08:59:23.989Z,11.13
2018-09-15T09:01:53.787Z,12.57
2018-09-15T09:04:28.361Z,10.07
2018-09-15T09:06:58.564Z,8.30
2018-09-15T09:09:28.909Z,11.00
2018-09-15T09:11:58.913Z,8.97
2018-09-15T09:14:28.791Z,10.33
2018-09-15T09:16:58.705Z,10.93
2018-09-15T09:19:29.204Z,8.20
2018-09-15T09:21:58.950Z,11.27
2018-09-15T09:24:28.693Z,12.27
2018-09-15T09:26:58.444Z,11.87
2018-09-15T09:29:28.310Z,9.33
2018-09-15T09:31:58.882Z,9.93
2018-09-15T09:34:29.140Z,11.10
2018-09-15T09:36:59.135Z,12.10
2018-09-15T09:39:28.964Z,9.80
2018-09-15T09:41:59.132Z,9.00
2018-09-15T09:44:29.146Z,9.50
2018-09-15T09:46:59.264Z,8.00
2018-09-15T09:49:29.139Z,7.73
2018-09-15T09:51:59.132Z,12.93
2018-09-15T09:54:28.864Z,18.10
2018-09-15T09:56:59.349Z,7.10
2018-09-15T09:59:29.130Z,7.93
2018-09-15T10:02:03.983Z,10.13
2018-09-15T10:04:33.791Z,10.10
2018-09-15T10:07:03.785Z,10.63
2018-09-15T10:09:33.667Z,8.47
2018-09-15T10:12:03.670Z,9.70
2018-09-15T10:14:34.362Z,9.30
2018-09-15T10:17:04.741Z,9.37
2018-09-15T10:19:34.477Z,8.90
2018-09-15T10:22:04.339Z,10.87
2018-09-15T10:24:34.229Z,11.53
2018-09-15T10:27:08.278Z,8.77
2018-09-15T10:29:38.071Z,8.77
2018-09-15T10:32:07.899Z,11.10
2018-09-15T10:34:37.607Z,5.67
2018-09-15T10:37:08.373Z,10.13
2018-09-15T10:39:38.102Z,9.67
2018-09-15T10:42:07.836Z,11.07
2018-09-15T10:44:37.615Z,6.70
2018-09-15T10:47:07.363Z,8.67
2018-09-15T10:49:37.259Z,8.53
2018-09-15T10:52:07.028Z,9.97
2018-09-15T10:54:36.804Z,9.77
2018-09-15T10:57:06.903Z,8.90
2018-09-15T10:59:36.702Z,10.27
2018-09-15T11:02:06.654Z,7.13
2018-09-15T11:04:36.423Z,15.33
2018-09-15T11:07:06.277Z,8.50
2018-09-15T11:09:36.017Z,11.70
2018-09-15T11:12:05.903Z,7.90
2018-09-15T11:14:35.701Z,9.27
2018-09-15T11:17:06.144Z,9.93
2018-09-15T11:19:36.212Z,7.47
2018-09-15T11:22:06.315Z,11.53
2018-09-15T11:24:37.167Z,5.50
2018-09-15T11:27:07.733Z,6.63
2018-09-15T11:29:37.547Z,8.97
2018-09-15T11:32:07.317Z,6.40
2018-09-15T11:34:37.145Z,10.60
2018-09-15T11:37:06.994Z,5.10
2018-09-15T11:39:40.960Z,7.87
2018-09-15T11:42:10.746Z,5.83
2018-09-15T11:44:40.532Z,6.47
2018-09-15T11:47:10.295Z,8.47
2018-09-15T11:49:40.277Z,6.63
2018-09-15T11:52:10.116Z,6.57
2018-09-15T11:54:39.921Z,7.40
2018-09-15T11:57:09.668Z,8.87
2018-09-15T11:59:39.423Z,5.67
2018-09-15T12:02:09.332Z,5.87
2018-09-15T12:04:39.180Z,4.03
2018-09-15T12:07:08.958Z,4.27
2018-09-15T12:09:38.736Z,5.43
2018-09-15T12:12:08.474Z,6.67
2018-09-15T12:14:38.220Z,4.50
2018-09-15T12:17:08.085Z,5.20
2018-09-15T12:19:38.894Z,7.20
2018-09-15T12:22:09.355Z,5.33
2018-09-15T12:24:39.539Z,7.70
2018-09-15T12:27:09.292Z,5.20
2018-09-15T12:29:38.931Z,6.27
2018-09-15T12:32:08.686Z,7.43
2018-09-15T12:34:43.204Z,3.67
2018-09-15T12:37:12.932Z,4.93
2018-09-15T12:39:42.578Z,8.40
2018-09-15T12:42:12.405Z,4.53
2018-09-15T12:44:42.215Z,4.97
2018-09-15T12:47:11.895Z,6.77
2018-09-15T12:49:41.536Z,6.40
2018-09-15T12:52:11.223Z,5.50
2018-09-15T12:54:40.947Z,5.43
2018-09-15T12:57:10.666Z,5.13
2018-09-15T12:59:40.575Z,5.33
2018-09-15T13:02:11.080Z,5.93
2018-09-15T13:04:40.824Z,5.50
2018-09-15T13:07:10.572Z,5.90
2018-09-15T13:09:40.334Z,5.63
2018-09-15T13:12:10.130Z,7.77
2018-09-15T13:14:39.717Z,5.43
2018-09-15T13:17:09.456Z,4.67
2018-09-15T13:19:39.104Z,10.57
2018-09-15T13:22:08.764Z,5.43
2018-09-15T13:24:38.633Z,6.20
2018-09-15T13:27:08.351Z,5.27
2018-09-15T13:29:38.286Z,7.33
2018-09-15T13:32:09.001Z,4.30
2018-09-15T13:34:38.806Z,3.97
2018-09-15T13:37:08.653Z,7.43
2018-09-15T13:39:38.457Z,7.43
2018-09-15T13:42:08.525Z,6.20
2018-09-15T13:44:38.356Z,6.43
2018-09-15T13:47:08.150Z,5.73
2018-09-15T13:49:38.073Z,7.30
2018-09-15T13:52:07.886Z,8.10
2018-09-15T13:54:37.711Z,4.37
2018-09-15T13:57:07.556Z,5.97
2018-09-15T13:59:37.925Z,6.90
2018-09-15T14:02:07.973Z,4.87
2018-09-15T14:04:37.662Z,3.93
2018-09-15T14:07:07.576Z,4.80
2018-09-15T14:09:43.474Z,4.73
2018-09-15T14:12:07.539Z,4.37
2018-09-15T14:14:37.325Z,5.80
2018-09-15T14:17:07.102Z,7.27
2018-09-15T14:19:36.905Z,9.10
2018-09-15T14:22:06.556Z,6.43
2018-09-15T14:24:36.260Z,6.13
2018-09-15T14:27:06.079Z,5.90
2018-09-15T14:29:35.915Z,8.17
2018-09-15T14:32:05.613Z,6.70
2018-09-15T14:34:35.505Z,6.40
2018-09-15T14:37:05.226Z,6.10
2018-09-15T14:39:34.981Z,7.23
2018-09-15T14:42:04.610Z,9.30
2018-09-15T14:44:34.350Z,8.73
2018-09-15T14:47:04.121Z,6.10
2018-09-15T14:49:33.952Z,5.80
2018-09-15T14:52:03.679Z,6.37
2018-09-15T14:54:33.383Z,4.77
2018-09-15T14:57:03.079Z,6.27
2018-09-15T14:59:33.054Z,4.37
2018-09-15T15:02:02.742Z,3.77
2018-09-15T15:04:32.523Z,6.13
2018-09-15T15:07:02.181Z,4.37
2018-09-15T15:09:32.093Z,7.60
2018-09-15T15:12:01.777Z,5.10
2018-09-15T15:14:31.454Z,7.30
2018-09-15T15:17:01.172Z,5.30
2018-09-15T15:19:30.876Z,4.67
2018-09-15T15:22:00.536Z,5.93
2018-09-15T15:24:30.292Z,7.00
2018-09-15T15:27:00.054Z,5.23
2018-09-15T15:29:29.839Z,7.27
2018-09-15T15:31:59.580Z,4.53
2018-09-15T15:34:29.544Z,8.80
2018-09-15T15:36:59.240Z,4.63
2018-09-15T15:39:28.993Z,3.40
2018-09-15T15:41:58.785Z,4.53
2018-09-15T15:44:28.553Z,4.53
2018-09-15T15:46:58.237Z,4.80
2018-09-15T15:49:27.996Z,5.00
2018-09-15T15:51:57.686Z,6.03
2018-09-15T15:54:27.388Z,8.03
2018-09-15T15:56:57.193Z,8.00
2018-09-15T15:59:26.871Z,6.47
2018-09-15T16:01:56.689Z,5.77
2018-09-15T16:04:26.465Z,7.67
2018-09-15T16:06:56.143Z,9.13
2018-09-15T16:09:25.855Z,6.83
2018-09-15T16:11:55.588Z,6.53
2018-09-15T16:14:25.499Z,7.23
2018-09-15T16:16:55.374Z,11.63
2018-09-15T16:19:26.132Z,7.70
2018-09-15T16:21:55.870Z,8.43
2018-09-15T16:24:25.603Z,13.50
2018-09-15T16:26:55.249Z,12.27
2018-09-15T16:29:24.967Z,10.77
2018-09-15T16:31:54.741Z,8.60
2018-09-15T16:34:24.619Z,14.83
2018-09-15T16:36:54.289Z,12.33
2018-09-15T16:39:23.991Z,7.83
2018-09-15T16:41:53.732Z,7.57
2018-09-15T16:44:23.477Z,5.37
2018-09-15T16:46:53.822Z,6.83
2018-09-15T16:49:24.095Z,10.40
2018-09-15T16:51:53.824Z,8.33
2018-09-15T16:54:23.494Z,8.00
2018-09-15T16:56:53.223Z,8.00
2018-09-15T16:59:22.940Z,9.27
2018-09-15T17:01:52.603Z,11.13
2018-09-15T17:04:22.339Z,17.70
2018-09-15T17:06:52.367Z,9.70
2018-09-15T17:09:22.134Z,14.07
2018-09-15T17:11:51.865Z,13.80
2018-09-15T17:14:21.610Z,11.20
2018-09-15T17:16:51.373Z,9.20
2018-09-15T17:19:21.093Z,10.57
2018-09-15T17:21:50.814Z,20.03
2018-09-15T17:24:20.535Z,26.30
2018-09-15T17:26:50.249Z,16.67
2018-09-15T17:29:20.049Z,11.10
2018-09-15T17:31:49.769Z,11.37
2018-09-15T17:34:19.482Z,10.73
2018-09-15T17:36:49.251Z,10.80
2018-09-15T17:39:18.912Z,10.97
2018-09-15T17:41:48.829Z,7.80
2018-09-15T17:44:18.602Z,11.20
2018-09-15T17:46:48.748Z,10.60
2018-09-15T17:49:18.451Z,10.03
2018-09-15T17:51:48.548Z,16.57
2018-09-15T17:54:18.293Z,10.53
2018-09-15T17:56:48.414Z,10.97
2018-09-15T17:59:18.156Z,11.97
2018-09-15T18:01:48.128Z,16.47
2018-09-15T18:04:17.849Z,10.83
2018-09-15T18:06:47.780Z,15.30
2018-09-15T18:09:17.569Z,15.00
2018-09-15T18:11:47.780Z,10.03
2018-09-15T18:14:17.515Z,13.40
2018-09-15T18:16:47.301Z,13.13
2018-09-15T18:19:17.107Z,16.13
2018-09-15T18:21:46.830Z,15.37
2018-09-15T18:24:16.557Z,14.20
2018-09-15T18:26:46.392Z,20.47
2018-09-15T18:29:16.139Z,20.90
2018-09-15T18:31:45.937Z,21.13
2018-09-15T18:34:15.708Z,20.60
2018-09-15T18:36:45.558Z,15.83
2018-09-15T18:39:15.120Z,12.33
2018-09-15T18:41:45.022Z,8.63
2018-09-15T18:44:15.797Z,8.77
2018-09-15T18:46:45.481Z,10.27
2018-09-15T18:49:15.271Z,9.63
2018-09-15T18:51:44.979Z,8.87
2018-09-15T18:54:14.860Z,7.87
2018-09-15T18:56:44.628Z,9.03
2018-09-15T18:59:14.656Z,9.80
2018-09-15T19:01:44.368Z,10.43
2018-09-15T19:04:14.135Z,6.93
2018-09-15T19:06:43.904Z,10.97
2018-09-15T19:09:13.697Z,9.67
2018-09-15T19:11:43.436Z,8.37
2018-09-15T19:14:13.150Z,11.10
2018-09-15T19:16:42.908Z,11.67
2018-09-15T19:19:12.695Z,11.47
2018-09-15T19:21:42.434Z,10.10
2018-09-15T19:24:12.276Z,9.80
2018-09-15T19:26:42.141Z,12.33
2018-09-15T19:29:11.781Z,10.53
2018-09-15T19:31:41.597Z,8.30
2018-09-15T19:34:14.262Z,9.40
2018-09-15T19:36:44.357Z,10.00
2018-09-15T19:39:15.280Z,14.43
2018-09-15T19:41:44.909Z,8.40
2018-09-15T19:44:14.612Z,10.27
2018-09-15T19:46:44.379Z,14.30
2018-09-15T19:49:14.233Z,10.33
2018-09-15T19:51:43.995Z,11.47
2018-09-15T19:54:13.753Z,11.60
2018-09-15T19:56:47.883Z,12.07
2018-09-15T19:59:17.690Z,7.80
2018-09-15T20:01:47.421Z,11.30
2018-09-15T20:04:17.158Z,13.03
2018-09-15T20:06:46.949Z,14.70
2018-09-15T20:09:16.673Z,9.60
2018-09-15T20:11:46.446Z,11.37
2018-09-15T20:14:16.240Z,10.20
2018-09-15T20:16:44.108Z,8.63
2018-09-15T20:19:12.030Z,11.90
2018-09-15T20:21:39.897Z,11.90
2018-09-15T20:24:09.639Z,11.03
2018-09-15T20:26:39.385Z,9.97
2018-09-15T20:29:09.028Z,8.57
2018-09-15T20:31:38.855Z,9.77
2018-09-15T20:34:08.604Z,9.63
2018-09-15T20:36:38.366Z,7.60
2018-09-15T20:39:11.471Z,7.30
2018-09-15T20:41:41.541Z,6.83
2018-09-15T20:44:11.266Z,10.70
2018-09-15T20:46:40.911Z,8.30
2018-09-15T20:49:11.550Z,12.20
2018-09-15T20:51:41.228Z,11.77
2018-09-15T20:54:11.805Z,9.20
2018-09-15T20:56:41.483Z,9.43
2018-09-15T20:59:11.167Z,7.83
2018-09-15T21:01:40.826Z,10.77
2018-09-15T21:04:10.496Z,14.63
2018-09-15T21:06:40.233Z,11.53
2018-09-15T21:09:11.814Z,11.63
2018-09-15T21:11:41.468Z,6.47
2018-09-15T21:14:11.252Z,9.03
2018-09-15T21:16:40.961Z,9.67
2018-09-15T21:19:10.656Z,11.67
2018-09-15T21:21:40.325Z,9.57
2018-09-15T21:24:10.214Z,10.40
2018-09-15T21:26:39.839Z,9.27
2018-09-15T21:29:09.791Z,11.17
2018-09-15T21:31:39.911Z,9.63
2018-09-15T21:34:09.608Z,8.80
2018-09-15T21:36:39.307Z,11.20
2018-09-15T21:39:13.282Z,9.53
2018-09-15T21:41:43.083Z,12.43
2018-09-15T21:44:12.833Z,19.60
2018-09-15T21:46:42.724Z,11.50
2018-09-15T21:49:12.416Z,10.13
2018-09-15T21:51:42.168Z,8.80
2018-09-15T21:54:11.920Z,8.40
2018-09-15T21:56:41.659Z,8.27
2018-09-15T21:59:11.367Z,9.67
2018-09-15T22:01:41.038Z,7.93
2018-09-15T22:04:16.095Z,11.23
2018-09-15T22:06:45.743Z,9.30
2018-09-15T22:09:15.462Z,8.43
2018-09-15T22:11:45.186Z,7.90
2018-09-15T22:14:14.931Z,10.60
2018-09-15T22:16:45.174Z,7.53
2018-09-15T22:19:14.836Z,8.13
2018-09-15T22:21:44.616Z,10.80
2018-09-15T22:24:14.311Z,9.97
2018-09-15T22:26:44.090Z,8.60
2018-09-15T22:29:14.984Z,9.87
2018-09-15T22:31:44.759Z,11.40
2018-09-15T22:34:14.592Z,9.73
2018-09-15T22:36:44.189Z,15.37
2018-09-15T22:39:13.863Z,13.03
2018-09-15T22:41:43.608Z,9.07
2018-09-15T22:44:13.481Z,7.37
2018-09-15T22:46:43.226Z,6.80
2018-09-15T22:49:13.240Z,8.93
2018-09-15T22:51:42.983Z,9.70
2018-09-15T22:54:13.275Z,11.60
2018-09-15T22:56:42.873Z,7.73
2018-09-15T22:59:12.915Z,11.00
2018-09-15T23:01:42.687Z,12.00
2018-09-15T23:04:14.020Z,8.40
2018-09-15T23:06:43.765Z,10.27
2018-09-15T23:09:13.449Z,12.80
2018-09-15T23:11:43.136Z,13.10
2018-09-15T23:14:12.875Z,10.00
2018-09-15T23:16:42.556Z,8.60
2018-09-15T23:19:12.245Z,7.33
2018-09-15T23:21:41.892Z,14.40
2018-09-15T23:24:11.764Z,11.20
2018-09-15T23:26:42.215Z,10.10
2018-09-15T23:29:12.253Z,7.87
2018-09-15T23:31:41.978Z,9.60
2018-09-15T23:34:11.729Z,10.80
2018-09-15T23:36:41.368Z,12.13
2018-09-15T23:39:11.063Z,10.23
2018-09-15T23:41:40.838Z,10.47
2018-09-15T23:44:10.567Z,9.00
2018-09-15T23:46:40.314Z,10.17
2018-09-15T23:49:09.944Z,12.10
2018-09-15T23:51:39.687Z,9.17
2018-09-15T23:54:09.558Z,11.33
2018-09-15T23:56:39.277Z,12.70
2018-09-15T23:59:09.077Z,9.20
